sensor_id;sensor_type;location;lat;lon;timestamp;P1;durP1;ratioP1;P2;durP2;ratioP2
23555;SDS011;11956;53.184;8.578;2023-01-23T00:00:16;9.30;;;3.45;;
23555;SDS011;11956;53.184;8.578;2023-01-23T00:03:17;8.43;;;3.28;;
23555;SDS011;11956;53.184;8.578;2023-01-23T00:06:18;6.63;;;3.30;;
23555;SDS011;11956;53.184;8.578;2023-01-23T00:09:20;8.88;;;3.83;;
23555;SDS011;11956;53.184;8.578;2023-01-23T00:12:20;9.45;;;3.58;;
23555;SDS011;11956;53.184;8.578;2023-01-23T00:15:21;8.10;;;3.33;;
23555;SDS011;11956;53.184;8.578;2023-01-23T00:18:23;10.70;;;3.72;;
23555;SDS011;11956;53.184;8.578;2023-01-23T00:21:24;8.20;;;2.78;;
23555;SDS011;11956;53.184;8.578;2023-01-23T00:24:27;8.05;;;3.65;;
23555;SDS011;11956;53.184;8.578;2023-01-23T00:27:28;8.77;;;3.60;;
23555;SDS011;11956;53.184;8.578;2023-01-23T00:30:29;6.25;;;3.55;;
23555;SDS011;11956;53.184;8.578;2023-01-23T00:33:30;8.73;;;3.40;;
23555;SDS011;11956;53.184;8.578;2023-01-23T00:36:35;9.27;;;3.70;;
23555;SDS011;11956;53.184;8.578;2023-01-23T00:39:39;7.47;;;3.63;;
23555;SDS011;11956;53.184;8.578;2023-01-23T00:42:40;8.98;;;3.97;;
23555;SDS011;11956;53.184;8.578;2023-01-23T00:45:40;7.00;;;3.97;;
23555;SDS011;11956;53.184;8.578;2023-01-23T00:48:41;5.63;;;3.67;;
23555;SDS011;11956;53.184;8.578;2023-01-23T00:51:43;7.22;;;3.88;;
23555;SDS011;11956;53.184;8.578;2023-01-23T00:54:44;7.75;;;4.10;;
23555;SDS011;11956;53.184;8.578;2023-01-23T00:57:45;9.88;;;3.92;;
23555;SDS011;11956;53.184;8.578;2023-01-23T01:00:47;6.82;;;3.85;;
23555;SDS011;11956;53.184;8.578;2023-01-23T01:03:48;9.05;;;3.75;;
23555;SDS011;11956;53.184;8.578;2023-01-23T01:06:49;9.05;;;4.35;;
23555;SDS011;11956;53.184;8.578;2023-01-23T01:09:50;8.13;;;3.75;;
23555;SDS011;11956;53.184;8.578;2023-01-23T01:12:51;7.85;;;3.35;;
23555;SDS011;11956;53.184;8.578;2023-01-23T01:15:52;8.25;;;3.88;;
23555;SDS011;11956;53.184;8.578;2023-01-23T01:18:54;8.98;;;4.03;;
23555;SDS011;11956;53.184;8.578;2023-01-23T01:21:55;9.02;;;4.10;;
23555;SDS011;11956;53.184;8.578;2023-01-23T01:24:56;7.63;;;4.03;;
23555;SDS011;11956;53.184;8.578;2023-01-23T01:27:57;8.32;;;4.53;;
23555;SDS011;11956;53.184;8.578;2023-01-23T01:31:02;8.18;;;4.15;;
23555;SDS011;11956;53.184;8.578;2023-01-23T01:34:06;9.00;;;4.30;;
23555;SDS011;11956;53.184;8.578;2023-01-23T01:37:07;6.93;;;3.78;;
23555;SDS011;11956;53.184;8.578;2023-01-23T01:40:10;9.63;;;4.25;;
23555;SDS011;11956;53.184;8.578;2023-01-23T01:43:19;7.65;;;3.88;;
23555;SDS011;11956;53.184;8.578;2023-01-23T01:46:24;7.90;;;4.00;;
23555;SDS011;11956;53.184;8.578;2023-01-23T01:49:28;8.20;;;3.67;;
23555;SDS011;11956;53.184;8.578;2023-01-23T01:52:33;6.25;;;4.00;;
23555;SDS011;11956;53.184;8.578;2023-01-23T01:55:34;6.00;;;3.92;;
23555;SDS011;11956;53.184;8.578;2023-01-23T01:58:35;11.52;;;4.20;;
23555;SDS011;11956;53.184;8.578;2023-01-23T02:01:38;5.97;;;3.85;;
23555;SDS011;11956;53.184;8.578;2023-01-23T02:04:41;6.20;;;3.60;;
23555;SDS011;11956;53.184;8.578;2023-01-23T02:07:57;5.50;;;3.65;;
23555;SDS011;11956;53.184;8.578;2023-01-23T02:11:12;7.10;;;3.90;;
23555;SDS011;11956;53.184;8.578;2023-01-23T02:17:17;7.00;;;3.90;;
23555;SDS011;11956;53.184;8.578;2023-01-23T02:20:24;6.32;;;3.67;;
23555;SDS011;11956;53.184;8.578;2023-01-23T02:26:37;7.22;;;3.60;;
23555;SDS011;11956;53.184;8.578;2023-01-23T02:29:43;5.25;;;3.58;;
23555;SDS011;11956;53.184;8.578;2023-01-23T02:32:48;10.30;;;3.83;;
23555;SDS011;11956;53.184;8.578;2023-01-23T02:35:49;5.47;;;3.92;;
23555;SDS011;11956;53.184;8.578;2023-01-23T02:42:11;8.40;;;3.90;;
23555;SDS011;11956;53.184;8.578;2023-01-23T02:45:20;10.75;;;4.05;;
23555;SDS011;11956;53.184;8.578;2023-01-23T02:48:21;8.52;;;3.70;;
23555;SDS011;11956;53.184;8.578;2023-01-23T02:51:21;6.85;;;3.70;;
23555;SDS011;11956;53.184;8.578;2023-01-23T02:54:23;8.25;;;3.45;;
23555;SDS011;11956;53.184;8.578;2023-01-23T02:57:25;8.45;;;3.80;;
23555;SDS011;11956;53.184;8.578;2023-01-23T03:00:26;6.45;;;3.08;;
23555;SDS011;11956;53.184;8.578;2023-01-23T03:03:26;8.10;;;3.53;;
23555;SDS011;11956;53.184;8.578;2023-01-23T03:06:28;7.18;;;3.28;;
23555;SDS011;11956;53.184;8.578;2023-01-23T03:09:35;6.40;;;3.70;;
23555;SDS011;11956;53.184;8.578;2023-01-23T03:12:36;6.25;;;3.33;;
23555;SDS011;11956;53.184;8.578;2023-01-23T03:15:41;6.40;;;3.70;;
23555;SDS011;11956;53.184;8.578;2023-01-23T03:18:42;7.85;;;3.55;;
23555;SDS011;11956;53.184;8.578;2023-01-23T03:21:44;6.85;;;3.10;;
23555;SDS011;11956;53.184;8.578;2023-01-23T03:24:45;8.18;;;3.72;;
23555;SDS011;11956;53.184;8.578;2023-01-23T03:27:47;5.57;;;3.10;;
23555;SDS011;11956;53.184;8.578;2023-01-23T03:30:48;6.07;;;3.42;;
23555;SDS011;11956;53.184;8.578;2023-01-23T03:33:49;8.25;;;3.40;;
23555;SDS011;11956;53.184;8.578;2023-01-23T03:36:49;7.45;;;3.65;;
23555;SDS011;11956;53.184;8.578;2023-01-23T03:39:50;7.28;;;3.25;;
23555;SDS011;11956;53.184;8.578;2023-01-23T03:43:10;6.85;;;3.17;;
23555;SDS011;11956;53.184;8.578;2023-01-23T03:46:17;6.55;;;3.45;;
23555;SDS011;11956;53.184;8.578;2023-01-23T03:49:18;5.88;;;3.17;;
23555;SDS011;11956;53.184;8.578;2023-01-23T03:52:24;7.95;;;3.63;;
23555;SDS011;11956;53.184;8.578;2023-01-23T03:55:25;5.28;;;2.97;;
23555;SDS011;11956;53.184;8.578;2023-01-23T03:58:27;7.47;;;3.60;;
23555;SDS011;11956;53.184;8.578;2023-01-23T04:01:30;7.78;;;3.22;;
23555;SDS011;11956;53.184;8.578;2023-01-23T04:04:31;6.40;;;3.33;;
23555;SDS011;11956;53.184;8.578;2023-01-23T04:07:34;8.13;;;3.83;;
23555;SDS011;11956;53.184;8.578;2023-01-23T04:10:34;8.23;;;3.72;;
23555;SDS011;11956;53.184;8.578;2023-01-23T04:13:40;7.00;;;3.33;;
23555;SDS011;11956;53.184;8.578;2023-01-23T04:16:41;6.72;;;4.53;;
23555;SDS011;11956;53.184;8.578;2023-01-23T04:19:42;7.75;;;3.83;;
23555;SDS011;11956;53.184;8.578;2023-01-23T04:22:43;6.32;;;3.88;;
23555;SDS011;11956;53.184;8.578;2023-01-23T04:25:44;9.48;;;4.13;;
23555;SDS011;11956;53.184;8.578;2023-01-23T04:28:47;8.60;;;4.30;;
23555;SDS011;11956;53.184;8.578;2023-01-23T04:31:49;6.68;;;3.67;;
23555;SDS011;11956;53.184;8.578;2023-01-23T04:34:50;9.82;;;3.72;;
23555;SDS011;11956;53.184;8.578;2023-01-23T04:37:51;5.63;;;3.67;;
23555;SDS011;11956;53.184;8.578;2023-01-23T04:40:53;7.72;;;3.60;;
23555;SDS011;11956;53.184;8.578;2023-01-23T04:43:55;9.25;;;3.67;;
23555;SDS011;11956;53.184;8.578;2023-01-23T04:46:57;10.30;;;4.15;;
23555;SDS011;11956;53.184;8.578;2023-01-23T04:50:02;7.72;;;4.30;;
23555;SDS011;11956;53.184;8.578;2023-01-23T04:53:07;7.68;;;3.78;;
23555;SDS011;11956;53.184;8.578;2023-01-23T04:56:08;8.65;;;3.85;;
23555;SDS011;11956;53.184;8.578;2023-01-23T04:59:10;7.85;;;4.32;;
23555;SDS011;11956;53.184;8.578;2023-01-23T05:02:11;7.53;;;4.28;;
23555;SDS011;11956;53.184;8.578;2023-01-23T05:05:17;9.00;;;4.43;;
23555;SDS011;11956;53.184;8.578;2023-01-23T05:08:22;7.05;;;4.53;;
23555;SDS011;11956;53.184;8.578;2023-01-23T05:11:34;10.63;;;5.00;;
23555;SDS011;11956;53.184;8.578;2023-01-23T05:14:36;10.15;;;5.30;;
23555;SDS011;11956;53.184;8.578;2023-01-23T05:17:36;10.85;;;5.35;;
23555;SDS011;11956;53.184;8.578;2023-01-23T05:20:37;8.88;;;5.38;;
23555;SDS011;11956;53.184;8.578;2023-01-23T05:23:38;9.40;;;5.65;;
23555;SDS011;11956;53.184;8.578;2023-01-23T05:26:39;8.43;;;5.32;;
23555;SDS011;11956;53.184;8.578;2023-01-23T05:29:41;10.10;;;5.25;;
23555;SDS011;11956;53.184;8.578;2023-01-23T05:32:51;8.52;;;5.93;;
23555;SDS011;11956;53.184;8.578;2023-01-23T05:35:57;7.05;;;5.43;;
23555;SDS011;11956;53.184;8.578;2023-01-23T05:38:59;10.18;;;5.95;;
23555;SDS011;11956;53.184;8.578;2023-01-23T05:42:02;9.98;;;6.10;;
23555;SDS011;11956;53.184;8.578;2023-01-23T05:45:15;13.30;;;6.30;;
23555;SDS011;11956;53.184;8.578;2023-01-23T05:48:17;11.48;;;5.88;;
23555;SDS011;11956;53.184;8.578;2023-01-23T05:51:17;8.73;;;5.78;;
23555;SDS011;11956;53.184;8.578;2023-01-23T05:54:19;9.85;;;6.75;;
23555;SDS011;11956;53.184;8.578;2023-01-23T05:57:20;9.70;;;6.28;;
23555;SDS011;11956;53.184;8.578;2023-01-23T06:00:30;8.82;;;6.93;;
23555;SDS011;11956;53.184;8.578;2023-01-23T06:03:54;13.63;;;7.75;;
23555;SDS011;11956;53.184;8.578;2023-01-23T06:07:22;10.68;;;7.35;;
23555;SDS011;11956;53.184;8.578;2023-01-23T06:13:26;12.02;;;7.85;;
23555;SDS011;11956;53.184;8.578;2023-01-23T06:16:28;11.73;;;7.95;;
23555;SDS011;11956;53.184;8.578;2023-01-23T06:19:30;11.50;;;8.05;;
23555;SDS011;11956;53.184;8.578;2023-01-23T06:22:31;12.63;;;8.60;;
23555;SDS011;11956;53.184;8.578;2023-01-23T06:25:37;11.20;;;8.02;;
23555;SDS011;11956;53.184;8.578;2023-01-23T06:28:41;12.15;;;8.50;;
23555;SDS011;11956;53.184;8.578;2023-01-23T06:31:42;13.07;;;9.02;;
23555;SDS011;11956;53.184;8.578;2023-01-23T06:34:45;15.55;;;9.15;;
23555;SDS011;11956;53.184;8.578;2023-01-23T06:37:46;14.32;;;9.65;;
23555;SDS011;11956;53.184;8.578;2023-01-23T06:40:50;11.63;;;9.25;;
23555;SDS011;11956;53.184;8.578;2023-01-23T06:44:00;15.70;;;9.60;;
23555;SDS011;11956;53.184;8.578;2023-01-23T06:47:02;15.27;;;9.95;;
23555;SDS011;11956;53.184;8.578;2023-01-23T06:50:03;15.63;;;9.95;;
23555;SDS011;11956;53.184;8.578;2023-01-23T06:53:12;13.15;;;9.52;;
23555;SDS011;11956;53.184;8.578;2023-01-23T06:56:14;15.82;;;10.90;;
23555;SDS011;11956;53.184;8.578;2023-01-23T06:59:16;13.43;;;10.35;;
23555;SDS011;11956;53.184;8.578;2023-01-23T07:02:17;16.73;;;10.40;;
23555;SDS011;11956;53.184;8.578;2023-01-23T07:05:20;13.80;;;10.27;;
23555;SDS011;11956;53.184;8.578;2023-01-23T07:08:21;15.23;;;10.30;;
23555;SDS011;11956;53.184;8.578;2023-01-23T07:11:23;14.30;;;10.30;;
23555;SDS011;11956;53.184;8.578;2023-01-23T07:14:24;15.15;;;11.20;;
23555;SDS011;11956;53.184;8.578;2023-01-23T07:17:27;15.50;;;11.00;;
23555;SDS011;11956;53.184;8.578;2023-01-23T07:20:28;14.73;;;11.00;;
23555;SDS011;11956;53.184;8.578;2023-01-23T07:23:31;16.98;;;11.80;;
23555;SDS011;11956;53.184;8.578;2023-01-23T07:26:33;17.80;;;11.25;;
23555;SDS011;11956;53.184;8.578;2023-01-23T07:29:34;16.25;;;11.60;;
23555;SDS011;11956;53.184;8.578;2023-01-23T07:32:35;17.42;;;12.68;;
23555;SDS011;11956;53.184;8.578;2023-01-23T07:35:37;18.40;;;12.13;;
23555;SDS011;11956;53.184;8.578;2023-01-23T07:38:39;18.30;;;12.47;;
23555;SDS011;11956;53.184;8.578;2023-01-23T07:41:40;16.05;;;12.30;;
23555;SDS011;11956;53.184;8.578;2023-01-23T07:44:41;19.52;;;13.15;;
23555;SDS011;11956;53.184;8.578;2023-01-23T07:47:42;17.15;;;12.85;;
23555;SDS011;11956;53.184;8.578;2023-01-23T07:50:43;19.25;;;13.45;;
23555;SDS011;11956;53.184;8.578;2023-01-23T07:53:44;18.55;;;11.98;;
23555;SDS011;11956;53.184;8.578;2023-01-23T07:56:47;18.40;;;13.10;;
23555;SDS011;11956;53.184;8.578;2023-01-23T07:59:50;17.65;;;12.70;;
23555;SDS011;11956;53.184;8.578;2023-01-23T08:02:50;19.25;;;13.50;;
23555;SDS011;11956;53.184;8.578;2023-01-23T08:05:51;18.23;;;13.50;;
23555;SDS011;11956;53.184;8.578;2023-01-23T08:08:52;19.60;;;13.15;;
23555;SDS011;11956;53.184;8.578;2023-01-23T08:11:53;18.33;;;13.43;;
23555;SDS011;11956;53.184;8.578;2023-01-23T08:14:54;21.48;;;13.15;;
23555;SDS011;11956;53.184;8.578;2023-01-23T08:17:55;16.65;;;12.55;;
23555;SDS011;11956;53.184;8.578;2023-01-23T08:20:57;23.33;;;13.25;;
23555;SDS011;11956;53.184;8.578;2023-01-23T08:24:00;18.27;;;13.57;;
23555;SDS011;11956;53.184;8.578;2023-01-23T08:27:02;18.52;;;13.63;;
23555;SDS011;11956;53.184;8.578;2023-01-23T08:30:03;22.00;;;14.55;;
23555;SDS011;11956;53.184;8.578;2023-01-23T08:33:05;19.40;;;14.25;;
23555;SDS011;11956;53.184;8.578;2023-01-23T08:36:07;20.65;;;14.10;;
23555;SDS011;11956;53.184;8.578;2023-01-23T08:39:11;19.55;;;13.25;;
23555;SDS011;11956;53.184;8.578;2023-01-23T08:42:11;19.52;;;13.68;;
23555;SDS011;11956;53.184;8.578;2023-01-23T08:45:12;20.48;;;13.77;;
23555;SDS011;11956;53.184;8.578;2023-01-23T08:48:14;19.05;;;13.57;;
23555;SDS011;11956;53.184;8.578;2023-01-23T08:51:16;21.13;;;13.70;;
23555;SDS011;11956;53.184;8.578;2023-01-23T08:54:17;20.00;;;13.43;;
23555;SDS011;11956;53.184;8.578;2023-01-23T08:57:17;19.88;;;13.63;;
23555;SDS011;11956;53.184;8.578;2023-01-23T09:00:19;18.45;;;12.95;;
23555;SDS011;11956;53.184;8.578;2023-01-23T09:03:21;18.40;;;12.63;;
23555;SDS011;11956;53.184;8.578;2023-01-23T09:06:22;18.90;;;13.00;;
23555;SDS011;11956;53.184;8.578;2023-01-23T09:09:23;21.00;;;13.45;;
23555;SDS011;11956;53.184;8.578;2023-01-23T09:12:27;20.17;;;13.52;;
23555;SDS011;11956;53.184;8.578;2023-01-23T09:15:28;17.52;;;12.75;;
23555;SDS011;11956;53.184;8.578;2023-01-23T09:18:29;18.48;;;12.55;;
23555;SDS011;11956;53.184;8.578;2023-01-23T09:21:30;21.70;;;13.40;;
23555;SDS011;11956;53.184;8.578;2023-01-23T09:24:31;17.33;;;13.02;;
23555;SDS011;11956;53.184;8.578;2023-01-23T09:27:32;18.70;;;12.63;;
23555;SDS011;11956;53.184;8.578;2023-01-23T09:30:33;19.17;;;13.07;;
23555;SDS011;11956;53.184;8.578;2023-01-23T09:33:34;19.05;;;13.52;;
23555;SDS011;11956;53.184;8.578;2023-01-23T09:36:36;18.98;;;13.20;;
23555;SDS011;11956;53.184;8.578;2023-01-23T09:39:36;20.60;;;13.88;;
23555;SDS011;11956;53.184;8.578;2023-01-23T09:42:37;18.48;;;13.50;;
23555;SDS011;11956;53.184;8.578;2023-01-23T09:45:38;18.98;;;12.88;;
23555;SDS011;11956;53.184;8.578;2023-01-23T09:48:44;18.80;;;13.65;;
23555;SDS011;11956;53.184;8.578;2023-01-23T09:51:54;17.40;;;12.52;;
23555;SDS011;11956;53.184;8.578;2023-01-23T09:55:21;17.80;;;13.73;;
23555;SDS011;11956;53.184;8.578;2023-01-23T09:58:42;21.83;;;14.05;;
23555;SDS011;11956;53.184;8.578;2023-01-23T10:01:56;18.80;;;13.23;;
23555;SDS011;11956;53.184;8.578;2023-01-23T10:04:57;19.70;;;13.60;;
23555;SDS011;11956;53.184;8.578;2023-01-23T10:15:24;19.73;;;12.48;;
23555;SDS011;11956;53.184;8.578;2023-01-23T10:19:04;19.50;;;13.55;;
23555;SDS011;11956;53.184;8.578;2023-01-23T10:25:50;17.50;;;12.20;;
23555;SDS011;11956;53.184;8.578;2023-01-23T10:28:53;16.83;;;12.25;;
23555;SDS011;11956;53.184;8.578;2023-01-23T10:32:01;18.65;;;13.48;;
23555;SDS011;11956;53.184;8.578;2023-01-23T10:35:12;18.05;;;12.20;;
23555;SDS011;11956;53.184;8.578;2023-01-23T10:41:32;16.23;;;11.93;;
23555;SDS011;11956;53.184;8.578;2023-01-23T10:44:33;17.40;;;12.68;;
23555;SDS011;11956;53.184;8.578;2023-01-23T10:47:36;17.60;;;11.77;;
23555;SDS011;11956;53.184;8.578;2023-01-23T10:50:45;16.75;;;11.82;;
23555;SDS011;11956;53.184;8.578;2023-01-23T10:53:58;15.45;;;10.93;;
23555;SDS011;11956;53.184;8.578;2023-01-23T11:03:44;16.30;;;12.48;;
23555;SDS011;11956;53.184;8.578;2023-01-23T11:07:31;21.60;;;11.57;;
23555;SDS011;11956;53.184;8.578;2023-01-23T11:10:16;16.50;;;11.65;;
23555;SDS011;11956;53.184;8.578;2023-01-23T11:13:30;14.77;;;10.93;;
23555;SDS011;11956;53.184;8.578;2023-01-23T11:16:31;15.27;;;10.68;;
23555;SDS011;11956;53.184;8.578;2023-01-23T11:19:32;15.40;;;11.02;;
23555;SDS011;11956;53.184;8.578;2023-01-23T11:28:48;16.05;;;10.07;;
23555;SDS011;11956;53.184;8.578;2023-01-23T11:31:52;20.17;;;13.52;;
23555;SDS011;11956;53.184;8.578;2023-01-23T11:35:14;14.57;;;10.55;;
23555;SDS011;11956;53.184;8.578;2023-01-23T11:38:23;17.17;;;11.30;;
23555;SDS011;11956;53.184;8.578;2023-01-23T11:41:30;14.90;;;10.40;;
23555;SDS011;11956;53.184;8.578;2023-01-23T11:44:34;16.95;;;10.30;;
23555;SDS011;11956;53.184;8.578;2023-01-23T11:47:59;15.25;;;10.70;;
23555;SDS011;11956;53.184;8.578;2023-01-23T11:58:50;13.45;;;10.05;;
23555;SDS011;11956;53.184;8.578;2023-01-23T12:09:19;16.20;;;10.95;;
23555;SDS011;11956;53.184;8.578;2023-01-23T12:50:19;17.30;;;11.65;;
23555;SDS011;11956;53.184;8.578;2023-01-23T12:53:29;15.32;;;10.75;;
23555;SDS011;11956;53.184;8.578;2023-01-23T12:56:36;14.48;;;10.63;;
23555;SDS011;11956;53.184;8.578;2023-01-23T13:17:37;16.35;;;11.93;;
23555;SDS011;11956;53.184;8.578;2023-01-23T13:31:43;18.17;;;11.00;;
23555;SDS011;11956;53.184;8.578;2023-01-23T13:34:46;17.65;;;10.90;;
23555;SDS011;11956;53.184;8.578;2023-01-23T13:37:47;18.25;;;10.52;;
23555;SDS011;11956;53.184;8.578;2023-01-23T13:44:29;17.02;;;11.27;;
23555;SDS011;11956;53.184;8.578;2023-01-23T13:47:41;17.80;;;10.65;;
23555;SDS011;11956;53.184;8.578;2023-01-23T13:51:32;20.38;;;10.68;;
23555;SDS011;11956;53.184;8.578;2023-01-23T13:54:33;17.08;;;10.60;;
23555;SDS011;11956;53.184;8.578;2023-01-23T13:57:53;16.48;;;10.75;;
23555;SDS011;11956;53.184;8.578;2023-01-23T14:04:29;17.50;;;11.90;;
23555;SDS011;11956;53.184;8.578;2023-01-23T14:07:50;17.00;;;11.70;;
23555;SDS011;11956;53.184;8.578;2023-01-23T14:11:01;18.50;;;11.27;;
23555;SDS011;11956;53.184;8.578;2023-01-23T14:14:03;18.08;;;12.32;;
23555;SDS011;11956;53.184;8.578;2023-01-23T14:17:26;18.27;;;11.25;;
23555;SDS011;11956;53.184;8.578;2023-01-23T14:20:26;18.30;;;11.60;;
23555;SDS011;11956;53.184;8.578;2023-01-23T14:23:36;20.92;;;11.50;;
23555;SDS011;11956;53.184;8.578;2023-01-23T14:26:46;18.30;;;11.43;;
23555;SDS011;11956;53.184;8.578;2023-01-23T14:29:56;20.70;;;11.60;;
23555;SDS011;11956;53.184;8.578;2023-01-23T14:32:58;19.23;;;11.75;;
23555;SDS011;11956;53.184;8.578;2023-01-23T14:35:59;16.42;;;11.00;;
23555;SDS011;11956;53.184;8.578;2023-01-23T14:39:00;21.92;;;12.20;;
23555;SDS011;11956;53.184;8.578;2023-01-23T14:42:03;18.38;;;11.73;;
23555;SDS011;11956;53.184;8.578;2023-01-23T14:45:07;16.70;;;11.30;;
23555;SDS011;11956;53.184;8.578;2023-01-23T14:48:13;19.17;;;11.07;;
23555;SDS011;11956;53.184;8.578;2023-01-23T14:51:17;17.65;;;11.30;;
23555;SDS011;11956;53.184;8.578;2023-01-23T14:54:25;17.23;;;11.10;;
23555;SDS011;11956;53.184;8.578;2023-01-23T14:57:26;16.88;;;11.40;;
23555;SDS011;11956;53.184;8.578;2023-01-23T15:00:28;17.77;;;11.05;;
23555;SDS011;11956;53.184;8.578;2023-01-23T15:03:37;18.77;;;11.68;;
23555;SDS011;11956;53.184;8.578;2023-01-23T15:06:48;21.17;;;12.07;;
23555;SDS011;11956;53.184;8.578;2023-01-23T15:09:59;19.70;;;12.00;;
23555;SDS011;11956;53.184;8.578;2023-01-23T15:13:01;19.58;;;11.90;;
23555;SDS011;11956;53.184;8.578;2023-01-23T15:16:13;18.38;;;11.80;;
23555;SDS011;11956;53.184;8.578;2023-01-23T15:19:21;20.10;;;12.35;;
23555;SDS011;11956;53.184;8.578;2023-01-23T15:22:25;22.50;;;13.27;;
23555;SDS011;11956;53.184;8.578;2023-01-23T15:25:29;21.52;;;12.90;;
23555;SDS011;11956;53.184;8.578;2023-01-23T15:28:49;21.75;;;12.90;;
23555;SDS011;11956;53.184;8.578;2023-01-23T15:31:57;20.13;;;12.27;;
23555;SDS011;11956;53.184;8.578;2023-01-23T15:34:58;22.63;;;14.15;;
23555;SDS011;11956;53.184;8.578;2023-01-23T15:38:00;21.15;;;13.32;;
23555;SDS011;11956;53.184;8.578;2023-01-23T15:41:08;20.08;;;13.10;;
23555;SDS011;11956;53.184;8.578;2023-01-23T15:44:11;22.67;;;13.95;;
23555;SDS011;11956;53.184;8.578;2023-01-23T15:47:15;23.27;;;14.57;;
23555;SDS011;11956;53.184;8.578;2023-01-23T15:50:15;19.20;;;13.85;;
23555;SDS011;11956;53.184;8.578;2023-01-23T15:53:16;22.65;;;14.90;;
23555;SDS011;11956;53.184;8.578;2023-01-23T15:56:23;23.25;;;15.18;;
23555;SDS011;11956;53.184;8.578;2023-01-23T15:59:34;23.73;;;14.77;;
23555;SDS011;11956;53.184;8.578;2023-01-23T16:02:35;23.40;;;14.77;;
23555;SDS011;11956;53.184;8.578;2023-01-23T16:05:36;24.45;;;16.90;;
23555;SDS011;11956;53.184;8.578;2023-01-23T16:08:37;24.30;;;16.52;;
23555;SDS011;11956;53.184;8.578;2023-01-23T16:11:38;25.85;;;16.52;;
23555;SDS011;11956;53.184;8.578;2023-01-23T16:14:40;23.55;;;16.25;;
23555;SDS011;11956;53.184;8.578;2023-01-23T16:17:41;26.23;;;17.05;;
23555;SDS011;11956;53.184;8.578;2023-01-23T16:20:43;22.02;;;16.60;;
23555;SDS011;11956;53.184;8.578;2023-01-23T16:23:45;24.77;;;16.73;;
23555;SDS011;11956;53.184;8.578;2023-01-23T16:26:47;25.98;;;16.75;;
23555;SDS011;11956;53.184;8.578;2023-01-23T16:29:49;23.52;;;16.95;;
23555;SDS011;11956;53.184;8.578;2023-01-23T16:32:50;26.27;;;17.58;;
23555;SDS011;11956;53.184;8.578;2023-01-23T16:35:52;28.58;;;18.63;;
23555;SDS011;11956;53.184;8.578;2023-01-23T16:38:54;25.30;;;17.10;;
23555;SDS011;11956;53.184;8.578;2023-01-23T16:41:55;24.20;;;17.20;;
23555;SDS011;11956;53.184;8.578;2023-01-23T16:44:56;25.80;;;17.27;;
23555;SDS011;11956;53.184;8.578;2023-01-23T16:47:57;24.23;;;16.25;;
23555;SDS011;11956;53.184;8.578;2023-01-23T16:51:20;31.60;;;17.95;;
23555;SDS011;11956;53.184;8.578;2023-01-23T16:57:24;25.40;;;16.73;;
23555;SDS011;11956;53.184;8.578;2023-01-23T17:00:25;29.58;;;19.00;;
23555;SDS011;11956;53.184;8.578;2023-01-23T17:03:31;25.08;;;17.63;;
23555;SDS011;11956;53.184;8.578;2023-01-23T17:06:35;24.98;;;18.05;;
23555;SDS011;11956;53.184;8.578;2023-01-23T17:09:36;28.85;;;18.67;;
23555;SDS011;11956;53.184;8.578;2023-01-23T17:12:36;23.75;;;16.60;;
23555;SDS011;11956;53.184;8.578;2023-01-23T17:15:38;28.55;;;18.02;;
23555;SDS011;11956;53.184;8.578;2023-01-23T17:18:40;24.27;;;17.35;;
23555;SDS011;11956;53.184;8.578;2023-01-23T17:21:41;28.15;;;18.27;;
23555;SDS011;11956;53.184;8.578;2023-01-23T17:24:44;25.67;;;17.50;;
23555;SDS011;11956;53.184;8.578;2023-01-23T17:27:45;26.42;;;18.13;;
23555;SDS011;11956;53.184;8.578;2023-01-23T17:30:47;27.80;;;18.88;;
23555;SDS011;11956;53.184;8.578;2023-01-23T17:33:51;25.17;;;18.23;;
23555;SDS011;11956;53.184;8.578;2023-01-23T17:36:52;29.50;;;19.48;;
23555;SDS011;11956;53.184;8.578;2023-01-23T17:39:55;26.77;;;18.17;;
23555;SDS011;11956;53.184;8.578;2023-01-23T17:42:56;26.38;;;18.45;;
23555;SDS011;11956;53.184;8.578;2023-01-23T17:45:57;28.45;;;20.02;;
23555;SDS011;11956;53.184;8.578;2023-01-23T17:48:58;26.83;;;18.73;;
23555;SDS011;11956;53.184;8.578;2023-01-23T17:51:59;26.08;;;18.95;;
23555;SDS011;11956;53.184;8.578;2023-01-23T17:55:01;24.17;;;17.60;;
23555;SDS011;11956;53.184;8.578;2023-01-23T17:58:02;25.27;;;18.40;;
23555;SDS011;11956;53.184;8.578;2023-01-23T18:01:03;25.58;;;17.60;;
23555;SDS011;11956;53.184;8.578;2023-01-23T18:04:20;25.60;;;17.90;;
23555;SDS011;11956;53.184;8.578;2023-01-23T18:07:21;30.40;;;19.88;;
23555;SDS011;11956;53.184;8.578;2023-01-23T18:10:22;25.35;;;18.63;;
23555;SDS011;11956;53.184;8.578;2023-01-23T18:13:31;26.33;;;18.50;;
23555;SDS011;11956;53.184;8.578;2023-01-23T18:16:43;27.48;;;18.63;;
23555;SDS011;11956;53.184;8.578;2023-01-23T18:19:44;26.90;;;17.83;;
23555;SDS011;11956;53.184;8.578;2023-01-23T18:22:45;24.38;;;18.00;;
23555;SDS011;11956;53.184;8.578;2023-01-23T18:25:47;26.55;;;18.27;;
23555;SDS011;11956;53.184;8.578;2023-01-23T18:39:26;26.52;;;18.20;;
23555;SDS011;11956;53.184;8.578;2023-01-23T18:43:13;24.50;;;17.50;;
23555;SDS011;11956;53.184;8.578;2023-01-23T18:46:22;25.55;;;18.23;;
23555;SDS011;11956;53.184;8.578;2023-01-23T18:49:23;25.73;;;18.10;;
23555;SDS011;11956;53.184;8.578;2023-01-23T19:02:52;25.58;;;18.63;;
23555;SDS011;11956;53.184;8.578;2023-01-23T19:05:58;29.40;;;19.35;;
23555;SDS011;11956;53.184;8.578;2023-01-23T19:09:00;28.02;;;19.40;;
23555;SDS011;11956;53.184;8.578;2023-01-23T19:15:20;34.22;;;21.23;;
23555;SDS011;11956;53.184;8.578;2023-01-23T19:18:52;30.08;;;18.83;;
23555;SDS011;11956;53.184;8.578;2023-01-23T19:22:10;29.27;;;19.33;;
23555;SDS011;11956;53.184;8.578;2023-01-23T19:25:14;29.65;;;19.35;;
23555;SDS011;11956;53.184;8.578;2023-01-23T19:28:17;30.30;;;19.95;;
23555;SDS011;11956;53.184;8.578;2023-01-23T19:31:22;28.38;;;19.23;;
23555;SDS011;11956;53.184;8.578;2023-01-23T19:34:29;27.90;;;19.33;;
23555;SDS011;11956;53.184;8.578;2023-01-23T19:37:30;32.53;;;19.77;;
23555;SDS011;11956;53.184;8.578;2023-01-23T19:40:31;28.80;;;19.55;;
23555;SDS011;11956;53.184;8.578;2023-01-23T19:43:31;29.90;;;20.55;;
23555;SDS011;11956;53.184;8.578;2023-01-23T19:46:33;28.63;;;19.15;;
23555;SDS011;11956;53.184;8.578;2023-01-23T19:49:37;32.13;;;18.77;;
23555;SDS011;11956;53.184;8.578;2023-01-23T19:52:37;28.15;;;19.30;;
23555;SDS011;11956;53.184;8.578;2023-01-23T19:55:39;29.90;;;19.00;;
23555;SDS011;11956;53.184;8.578;2023-01-23T19:58:41;30.25;;;20.02;;
23555;SDS011;11956;53.184;8.578;2023-01-23T20:01:42;30.33;;;19.67;;
23555;SDS011;11956;53.184;8.578;2023-01-23T20:04:47;26.50;;;18.80;;
23555;SDS011;11956;53.184;8.578;2023-01-23T20:07:48;34.47;;;19.60;;
23555;SDS011;11956;53.184;8.578;2023-01-23T20:10:49;33.28;;;20.13;;
23555;SDS011;11956;53.184;8.578;2023-01-23T20:13:50;31.95;;;19.90;;
23555;SDS011;11956;53.184;8.578;2023-01-23T20:16:51;31.33;;;20.30;;
23555;SDS011;11956;53.184;8.578;2023-01-23T20:19:52;34.78;;;20.85;;
23555;SDS011;11956;53.184;8.578;2023-01-23T20:22:53;31.52;;;20.48;;
23555;SDS011;11956;53.184;8.578;2023-01-23T20:25:57;31.92;;;20.58;;
23555;SDS011;11956;53.184;8.578;2023-01-23T20:28:59;35.40;;;20.42;;
23555;SDS011;11956;53.184;8.578;2023-01-23T20:32:00;33.78;;;20.33;;
23555;SDS011;11956;53.184;8.578;2023-01-23T20:35:01;34.25;;;21.17;;
23555;SDS011;11956;53.184;8.578;2023-01-23T20:38:02;34.30;;;20.65;;
23555;SDS011;11956;53.184;8.578;2023-01-23T20:41:04;33.63;;;20.35;;
23555;SDS011;11956;53.184;8.578;2023-01-23T20:44:08;34.80;;;18.92;;